Rysy — C6ZA3 — position and weather

sailwx.info

Track history (hours):
 
Tides and Currents Weather Stations Pressure Air Temp Water Temp Dewpoint Dewpoint Depression Visibility Wind Speed Wind Dir Waves Ship Positions

Rysy

Last reported at 2018-Jun-21 19:58 UTC. Time now 2018-Jun-21 19:58 UTC.
Position N 44°10' E 028°39'.

Length 229 m; draft 7.2 m.

Type: Cargo ship. MMSI: 311051200.

Date/timePositionNaut miles runAvg speedWind from/ knotsBaromVisibWave heightAir tempDewpointWater temp
2018-Jun-21 19:58N 44°10' E 028°39'0 0.0
2018-Jun-21 19:28N 44°10' E 028°39'0 0.0
2018-Jun-21 18:58N 44°10' E 028°39'0 0.0
2018-Jun-21 18:28N 44°10' E 028°39'0 0.0
2018-Jun-21 17:58N 44°10' E 028°39'0 0.0
2018-Jun-21 17:28N 44°10' E 028°39'0 0.0
2018-Jun-21 16:58N 44°10' E 028°39'0 0.9
2018-Jun-21 16:30N 44°09' E 028°39'2 4.6
2018-Jun-21 16:00N 44°07' E 028°41'4 7.0
2018-Jun-21 15:31N 44°05' E 028°44'5 9.1
2018-Jun-21 15:00N 44°01' E 028°48'611.5
2018-Jun-21 14:31N 43°57' E 028°53'612.4
2018-Jun-21 14:00N 43°52' E 028°59'612.7
2018-Jun-21 13:30N 43°47' E 029°04'812.4
2018-Jun-21 12:53N 43°40' E 029°09'512.6
2018-Jun-21 12:30N 43°35' E 029°09'612.6
2018-Jun-21 12:01N 43°29' E 029°10'612.3
2018-Jun-21 11:30N 43°23' E 029°10'612.0
2018-Jun-21 11:00N 43°17' E 029°10'611.7
2018-Jun-21 10:30N 43°11' E 029°10'611.5
2018-Jun-21 10:00N 43°05' E 029°10'611.6
2018-Jun-21 09:30N 42°60' E 029°10'612.0
2018-Jun-21 09:00N 42°54' E 029°11'612.2
2018-Jun-21 08:30N 42°47' E 029°11'612.2
2018-Jun-21 08:01N 42°41' E 029°11'612.2
2018-Jun-21 07:30N 42°35' E 029°11'612.0
2018-Jun-21 07:00N 42°29' E 029°12'611.7
2018-Jun-21 06:29N 42°23' E 029°12'611.8
2018-Jun-21 06:00N 42°18' E 029°12'611.9
2018-Jun-21 05:30N 42°12' E 029°12'1311.7
2018-Jun-21 04:23N 41°58' E 029°13'411.6
2018-Jun-21 04:01N 41°54' E 029°14'207 4.1
2018-Jun-19 01:36N 39°52' E 025°33'142 9.4
2018-Jun-18 10:32N 37°30' E 025°53'011.9
2018-Jun-18 10:29N 37°30' E 025°53'47812.2
2018-Jun-16 19:09N 31°31' E 032°17'212.2
2018-Jun-16 19:01N 31°30' E 032°18'611.5
2018-Jun-16 18:27N 31°26' E 032°24'1310.8
2018-Jun-16 17:14N 31°13' E 032°21'2 6.5
2018-Jun-16 16:57N 31°12' E 032°20'3 6.4
2018-Jun-16 16:30N 31°09' E 032°19'5 9.5
2018-Jun-16 16:00N 31°04' E 032°19'  
Track history (hours):
 
Tides and Currents Weather Stations Pressure Air Temp Water Temp Dewpoint Dewpoint Depression Visibility Wind Speed Wind Dir Waves Ship Positions

Rysy

Last reported at 2018-Jun-21 19:58 UTC. Time now 2018-Jun-21 19:58 UTC.
Position N 44°10' E 028°39'.

Length 229 m; draft 7.2 m.

Type: Cargo ship. MMSI: 311051200.

Date/timePositionNaut miles runAvg speedWind from/ knotsBaromVisibWave heightAir tempDewpointWater temp
2018-Jun-21 19:58N 44°10' E 028°39'0 0.0
2018-Jun-21 19:28N 44°10' E 028°39'0 0.0
2018-Jun-21 18:58N 44°10' E 028°39'0 0.0
2018-Jun-21 18:28N 44°10' E 028°39'0 0.0
2018-Jun-21 17:58N 44°10' E 028°39'0 0.0
2018-Jun-21 17:28N 44°10' E 028°39'0 0.0
2018-Jun-21 16:58N 44°10' E 028°39'0 0.9
2018-Jun-21 16:30N 44°09' E 028°39'2 4.6
2018-Jun-21 16:00N 44°07' E 028°41'4 7.0
2018-Jun-21 15:31N 44°05' E 028°44'5 9.1
2018-Jun-21 15:00N 44°01' E 028°48'611.5
2018-Jun-21 14:31N 43°57' E 028°53'612.4
2018-Jun-21 14:00N 43°52' E 028°59'612.7
2018-Jun-21 13:30N 43°47' E 029°04'812.4
2018-Jun-21 12:53N 43°40' E 029°09'512.6
2018-Jun-21 12:30N 43°35' E 029°09'612.6
2018-Jun-21 12:01N 43°29' E 029°10'612.3
2018-Jun-21 11:30N 43°23' E 029°10'612.0
2018-Jun-21 11:00N 43°17' E 029°10'611.7
2018-Jun-21 10:30N 43°11' E 029°10'611.5
2018-Jun-21 10:00N 43°05' E 029°10'611.6
2018-Jun-21 09:30N 42°60' E 029°10'612.0
2018-Jun-21 09:00N 42°54' E 029°11'612.2
2018-Jun-21 08:30N 42°47' E 029°11'612.2
2018-Jun-21 08:01N 42°41' E 029°11'612.2
2018-Jun-21 07:30N 42°35' E 029°11'612.0
2018-Jun-21 07:00N 42°29' E 029°12'611.7
2018-Jun-21 06:29N 42°23' E 029°12'611.8
2018-Jun-21 06:00N 42°18' E 029°12'611.9
2018-Jun-21 05:30N 42°12' E 029°12'1311.7
2018-Jun-21 04:23N 41°58' E 029°13'411.6
2018-Jun-21 04:01N 41°54' E 029°14'207 4.1
2018-Jun-19 01:36N 39°52' E 025°33'142 9.4
2018-Jun-18 10:32N 37°30' E 025°53'011.9
2018-Jun-18 10:29N 37°30' E 025°53'47812.2
2018-Jun-16 19:09N 31°31' E 032°17'212.2
2018-Jun-16 19:01N 31°30' E 032°18'611.5
2018-Jun-16 18:27N 31°26' E 032°24'1310.8
2018-Jun-16 17:14N 31°13' E 032°21'2 6.5
2018-Jun-16 16:57N 31°12' E 032°20'3 6.4
2018-Jun-16 16:30N 31°09' E 032°19'5 9.5
2018-Jun-16 16:00N 31°04' E 032°19'  

Dump ship's entire track history